sensor_id;sensor_type;location;lat;lon;timestamp;pressure;altitude;pressure_sealevel;temperature;humidity
55289;BME280;41154;45.394;5.734;2023-07-16T00:00:12;97130.44;;;20.32;100.00
55289;BME280;41154;45.394;5.734;2023-07-16T00:02:38;97123.97;;;20.51;100.00
55289;BME280;41154;45.394;5.734;2023-07-16T00:05:04;97131.97;;;20.47;100.00
55289;BME280;41154;45.394;5.734;2023-07-16T00:07:31;97124.19;;;20.63;100.00
55289;BME280;41154;45.394;5.734;2023-07-16T00:09:56;97138.63;;;20.63;100.00
55289;BME280;41154;45.394;5.734;2023-07-16T00:12:22;97136.78;;;20.50;100.00
55289;BME280;41154;45.394;5.734;2023-07-16T00:14:48;97144.97;;;20.50;100.00
55289;BME280;41154;45.394;5.734;2023-07-16T00:17:14;97139.63;;;20.22;100.00
55289;BME280;41154;45.394;5.734;2023-07-16T00:19:40;97134.06;;;20.50;100.00
55289;BME280;41154;45.394;5.734;2023-07-16T00:22:05;97135.81;;;20.69;100.00
55289;BME280;41154;45.394;5.734;2023-07-16T00:24:31;97126.25;;;20.57;100.00
55289;BME280;41154;45.394;5.734;2023-07-16T00:26:57;97136.50;;;20.29;100.00
55289;BME280;41154;45.394;5.734;2023-07-16T00:29:23;97133.56;;;20.25;100.00
55289;BME280;41154;45.394;5.734;2023-07-16T00:31:49;97143.09;;;20.14;100.00
55289;BME280;41154;45.394;5.734;2023-07-16T00:34:15;97158.66;;;20.14;100.00
55289;BME280;41154;45.394;5.734;2023-07-16T00:36:41;97152.94;;;20.24;100.00
55289;BME280;41154;45.394;5.734;2023-07-16T00:39:06;97144.72;;;20.15;100.00
55289;BME280;41154;45.394;5.734;2023-07-16T00:41:32;97145.56;;;20.47;100.00
55289;BME280;41154;45.394;5.734;2023-07-16T00:43:58;97153.88;;;20.42;100.00
55289;BME280;41154;45.394;5.734;2023-07-16T00:46:24;97177.19;;;20.11;100.00
55289;BME280;41154;45.394;5.734;2023-07-16T00:48:50;97179.69;;;19.99;100.00
55289;BME280;41154;45.394;5.734;2023-07-16T00:51:17;97173.56;;;20.16;100.00
55289;BME280;41154;45.394;5.734;2023-07-16T00:53:44;97177.22;;;20.34;100.00
55289;BME280;41154;45.394;5.734;2023-07-16T00:56:13;97175.31;;;20.35;100.00
55289;BME280;41154;45.394;5.734;2023-07-16T00:58:44;97165.22;;;20.35;100.00
55289;BME280;41154;45.394;5.734;2023-07-16T01:01:10;97167.69;;;20.23;100.00
55289;BME280;41154;45.394;5.734;2023-07-16T01:03:36;97155.75;;;20.33;100.00
55289;BME280;41154;45.394;5.734;2023-07-16T01:06:21;97164.47;;;20.21;100.00
55289;BME280;41154;45.394;5.734;2023-07-16T01:08:56;97149.56;;;20.18;100.00
55289;BME280;41154;45.394;5.734;2023-07-16T01:11:24;97161.13;;;20.01;100.00
55289;BME280;41154;45.394;5.734;2023-07-16T01:13:51;97154.66;;;19.97;100.00
55289;BME280;41154;45.394;5.734;2023-07-16T01:16:22;97162.84;;;19.97;100.00
55289;BME280;41154;45.394;5.734;2023-07-16T01:18:50;97163.06;;;19.73;100.00
55289;BME280;41154;45.394;5.734;2023-07-16T01:21:19;97162.16;;;19.91;100.00
55289;BME280;41154;45.394;5.734;2023-07-16T01:29:35;97153.81;;;20.10;100.00
55289;BME280;41154;45.394;5.734;2023-07-16T01:32:07;97153.44;;;20.03;100.00
55289;BME280;41154;45.394;5.734;2023-07-16T01:34:36;97164.91;;;20.14;100.00
55289;BME280;41154;45.394;5.734;2023-07-16T01:37:02;97172.22;;;19.91;100.00
55289;BME280;41154;45.394;5.734;2023-07-16T01:39:29;97163.06;;;19.87;100.00
55289;BME280;41154;45.394;5.734;2023-07-16T01:41:55;97157.91;;;19.99;100.00
55289;BME280;41154;45.394;5.734;2023-07-16T01:44:22;97161.94;;;19.88;100.00
55289;BME280;41154;45.394;5.734;2023-07-16T01:46:59;97151.59;;;20.13;100.00
55289;BME280;41154;45.394;5.734;2023-07-16T01:49:29;97149.16;;;19.88;100.00
55289;BME280;41154;45.394;5.734;2023-07-16T01:51:55;97148.59;;;20.00;100.00
55289;BME280;41154;45.394;5.734;2023-07-16T01:54:20;97151.47;;;19.81;100.00
55289;BME280;41154;45.394;5.734;2023-07-16T01:56:46;97146.53;;;19.69;100.00
55289;BME280;41154;45.394;5.734;2023-07-16T01:59:12;97145.84;;;19.78;100.00
55289;BME280;41154;45.394;5.734;2023-07-16T02:01:37;97144.41;;;19.66;100.00
55289;BME280;41154;45.394;5.734;2023-07-16T02:04:03;97144.31;;;19.71;100.00
55289;BME280;41154;45.394;5.734;2023-07-16T02:06:29;97141.22;;;19.64;100.00
55289;BME280;41154;45.394;5.734;2023-07-16T02:08:55;97135.97;;;19.54;100.00
55289;BME280;41154;45.394;5.734;2023-07-16T02:11:20;97153.94;;;19.41;100.00
55289;BME280;41154;45.394;5.734;2023-07-16T02:13:48;97156.88;;;19.45;100.00
55289;BME280;41154;45.394;5.734;2023-07-16T02:16:14;97156.25;;;19.48;100.00
55289;BME280;41154;45.394;5.734;2023-07-16T02:18:39;97161.16;;;19.87;100.00
55289;BME280;41154;45.394;5.734;2023-07-16T02:21:05;97166.16;;;19.94;100.00
55289;BME280;41154;45.394;5.734;2023-07-16T02:23:31;97162.47;;;19.90;100.00
55289;BME280;41154;45.394;5.734;2023-07-16T02:25:57;97156.31;;;19.70;100.00
55289;BME280;41154;45.394;5.734;2023-07-16T02:28:23;97158.16;;;19.61;100.00
55289;BME280;41154;45.394;5.734;2023-07-16T02:30:49;97164.47;;;19.70;100.00
55289;BME280;41154;45.394;5.734;2023-07-16T02:33:15;97169.44;;;19.82;100.00
55289;BME280;41154;45.394;5.734;2023-07-16T02:35:46;97161.63;;;19.89;100.00
55289;BME280;41154;45.394;5.734;2023-07-16T02:38:15;97152.69;;;19.89;100.00
55289;BME280;41154;45.394;5.734;2023-07-16T02:40:45;97145.75;;;19.83;100.00
55289;BME280;41154;45.394;5.734;2023-07-16T02:43:11;97139.81;;;19.81;100.00
55289;BME280;41154;45.394;5.734;2023-07-16T02:45:38;97142.63;;;19.62;100.00
55289;BME280;41154;45.394;5.734;2023-07-16T02:48:06;97140.63;;;19.39;100.00
55289;BME280;41154;45.394;5.734;2023-07-16T02:50:37;97144.25;;;19.35;100.00
55289;BME280;41154;45.394;5.734;2023-07-16T02:53:04;97145.88;;;19.36;100.00
55289;BME280;41154;45.394;5.734;2023-07-16T02:55:32;97146.97;;;19.49;100.00
55289;BME280;41154;45.394;5.734;2023-07-16T02:57:58;97152.41;;;19.49;100.00
55289;BME280;41154;45.394;5.734;2023-07-16T03:00:27;97144.97;;;19.27;100.00
55289;BME280;41154;45.394;5.734;2023-07-16T03:02:53;97145.47;;;19.29;100.00
55289;BME280;41154;45.394;5.734;2023-07-16T03:05:19;97156.16;;;19.39;100.00
55289;BME280;41154;45.394;5.734;2023-07-16T03:07:45;97144.06;;;19.31;100.00
55289;BME280;41154;45.394;5.734;2023-07-16T03:10:11;97124.94;;;19.22;100.00
55289;BME280;41154;45.394;5.734;2023-07-16T03:12:36;97097.06;;;19.03;100.00
55289;BME280;41154;45.394;5.734;2023-07-16T03:15:02;97082.16;;;19.00;100.00
55289;BME280;41154;45.394;5.734;2023-07-16T03:17:28;97076.59;;;19.06;100.00
55289;BME280;41154;45.394;5.734;2023-07-16T03:19:54;97077.81;;;18.99;100.00
55289;BME280;41154;45.394;5.734;2023-07-16T03:22:21;97088.31;;;18.92;100.00
55289;BME280;41154;45.394;5.734;2023-07-16T03:24:47;97083.28;;;18.85;100.00
55289;BME280;41154;45.394;5.734;2023-07-16T03:27:13;97089.50;;;18.86;100.00
55289;BME280;41154;45.394;5.734;2023-07-16T03:29:40;97101.97;;;19.01;100.00
55289;BME280;41154;45.394;5.734;2023-07-16T03:32:09;97102.50;;;18.89;100.00
55289;BME280;41154;45.394;5.734;2023-07-16T03:34:35;97108.59;;;18.81;100.00
55289;BME280;41154;45.394;5.734;2023-07-16T03:37:01;97117.19;;;19.02;100.00
55289;BME280;41154;45.394;5.734;2023-07-16T03:39:27;97121.91;;;19.24;100.00
55289;BME280;41154;45.394;5.734;2023-07-16T03:41:54;97115.38;;;19.25;100.00
55289;BME280;41154;45.394;5.734;2023-07-16T03:44:20;97117.38;;;19.19;100.00
55289;BME280;41154;45.394;5.734;2023-07-16T03:46:45;97121.31;;;18.99;100.00
55289;BME280;41154;45.394;5.734;2023-07-16T03:49:11;97128.66;;;18.99;100.00
55289;BME280;41154;45.394;5.734;2023-07-16T03:51:38;97133.47;;;18.88;100.00
55289;BME280;41154;45.394;5.734;2023-07-16T03:54:03;97142.75;;;19.15;100.00
55289;BME280;41154;45.394;5.734;2023-07-16T03:56:31;97145.28;;;19.25;100.00
55289;BME280;41154;45.394;5.734;2023-07-16T03:58:57;97139.06;;;19.11;100.00
55289;BME280;41154;45.394;5.734;2023-07-16T04:01:24;97132.69;;;19.01;100.00
55289;BME280;41154;45.394;5.734;2023-07-16T04:03:49;97128.38;;;19.14;100.00
55289;BME280;41154;45.394;5.734;2023-07-16T04:06:15;97118.81;;;19.17;100.00
55289;BME280;41154;45.394;5.734;2023-07-16T04:08:41;97112.25;;;19.18;100.00
55289;BME280;41154;45.394;5.734;2023-07-16T04:11:07;97111.34;;;19.22;100.00
55289;BME280;41154;45.394;5.734;2023-07-16T04:13:33;97099.84;;;19.12;100.00
55289;BME280;41154;45.394;5.734;2023-07-16T04:15:59;97104.63;;;19.06;100.00
55289;BME280;41154;45.394;5.734;2023-07-16T04:18:25;97107.94;;;19.03;100.00
55289;BME280;41154;45.394;5.734;2023-07-16T04:20:51;97123.47;;;18.83;100.00
55289;BME280;41154;45.394;5.734;2023-07-16T04:23:16;97129.75;;;18.84;100.00
55289;BME280;41154;45.394;5.734;2023-07-16T04:25:43;97138.94;;;19.16;100.00
55289;BME280;41154;45.394;5.734;2023-07-16T04:28:10;97147.28;;;19.06;100.00
55289;BME280;41154;45.394;5.734;2023-07-16T04:30:35;97148.72;;;19.17;100.00
55289;BME280;41154;45.394;5.734;2023-07-16T04:33:03;97140.44;;;19.22;100.00
55289;BME280;41154;45.394;5.734;2023-07-16T04:35:29;97144.78;;;19.23;100.00
55289;BME280;41154;45.394;5.734;2023-07-16T04:37:55;97154.47;;;19.29;100.00
55289;BME280;41154;45.394;5.734;2023-07-16T04:40:20;97156.34;;;19.15;100.00
55289;BME280;41154;45.394;5.734;2023-07-16T04:42:46;97153.63;;;18.87;100.00
55289;BME280;41154;45.394;5.734;2023-07-16T04:45:12;97145.69;;;19.04;100.00
55289;BME280;41154;45.394;5.734;2023-07-16T04:47:38;97148.53;;;18.80;100.00
55289;BME280;41154;45.394;5.734;2023-07-16T04:50:05;97147.25;;;18.78;100.00
55289;BME280;41154;45.394;5.734;2023-07-16T04:52:30;97143.06;;;19.13;100.00
55289;BME280;41154;45.394;5.734;2023-07-16T04:54:56;97134.41;;;19.11;100.00
55289;BME280;41154;45.394;5.734;2023-07-16T04:57:22;97128.44;;;18.81;100.00
55289;BME280;41154;45.394;5.734;2023-07-16T04:59:47;97150.13;;;18.67;100.00
55289;BME280;41154;45.394;5.734;2023-07-16T05:02:14;97164.56;;;18.82;100.00
55289;BME280;41154;45.394;5.734;2023-07-16T05:04:43;97172.25;;;18.94;100.00
55289;BME280;41154;45.394;5.734;2023-07-16T05:07:13;97173.50;;;19.15;100.00
55289;BME280;41154;45.394;5.734;2023-07-16T05:09:40;97175.31;;;19.34;100.00
55289;BME280;41154;45.394;5.734;2023-07-16T05:12:06;97164.50;;;19.15;100.00
55289;BME280;41154;45.394;5.734;2023-07-16T05:14:43;97150.31;;;19.32;100.00
55289;BME280;41154;45.394;5.734;2023-07-16T05:17:10;97164.03;;;19.27;100.00
55289;BME280;41154;45.394;5.734;2023-07-16T05:19:36;97169.16;;;19.14;100.00
55289;BME280;41154;45.394;5.734;2023-07-16T05:22:02;97176.47;;;18.86;100.00
55289;BME280;41154;45.394;5.734;2023-07-16T05:24:27;97173.16;;;18.89;100.00
55289;BME280;41154;45.394;5.734;2023-07-16T05:26:53;97166.84;;;19.08;100.00
55289;BME280;41154;45.394;5.734;2023-07-16T05:29:20;97155.13;;;19.07;100.00
55289;BME280;41154;45.394;5.734;2023-07-16T05:31:45;97182.94;;;19.18;100.00
55289;BME280;41154;45.394;5.734;2023-07-16T05:34:12;97184.97;;;19.26;100.00
55289;BME280;41154;45.394;5.734;2023-07-16T05:36:37;97185.19;;;19.44;100.00
55289;BME280;41154;45.394;5.734;2023-07-16T05:39:03;97182.84;;;19.51;100.00
55289;BME280;41154;45.394;5.734;2023-07-16T05:41:29;97181.41;;;20.18;100.00
55289;BME280;41154;45.394;5.734;2023-07-16T05:43:55;97181.97;;;20.06;100.00
55289;BME280;41154;45.394;5.734;2023-07-16T05:46:22;97173.53;;;19.93;100.00
55289;BME280;41154;45.394;5.734;2023-07-16T05:48:47;97167.78;;;19.95;100.00
55289;BME280;41154;45.394;5.734;2023-07-16T05:51:13;97161.88;;;20.16;100.00
55289;BME280;41154;45.394;5.734;2023-07-16T05:53:38;97155.97;;;19.35;100.00
55289;BME280;41154;45.394;5.734;2023-07-16T05:56:04;97148.97;;;19.57;100.00
55289;BME280;41154;45.394;5.734;2023-07-16T05:58:30;97155.06;;;20.27;100.00
55289;BME280;41154;45.394;5.734;2023-07-16T06:00:56;97159.31;;;21.76;100.00
55289;BME280;41154;45.394;5.734;2023-07-16T06:03:21;97152.91;;;22.42;100.00
55289;BME280;41154;45.394;5.734;2023-07-16T06:05:48;97143.28;;;24.32;91.32
55289;BME280;41154;45.394;5.734;2023-07-16T06:08:14;97150.31;;;24.21;91.65
55289;BME280;41154;45.394;5.734;2023-07-16T06:10:40;97151.28;;;24.92;86.60
55289;BME280;41154;45.394;5.734;2023-07-16T06:13:06;97145.00;;;26.31;79.62
55289;BME280;41154;45.394;5.734;2023-07-16T06:15:31;97143.06;;;25.78;79.40
55289;BME280;41154;45.394;5.734;2023-07-16T06:17:57;97141.50;;;24.36;87.57
55289;BME280;41154;45.394;5.734;2023-07-16T06:20:24;97148.34;;;25.71;79.97
55289;BME280;41154;45.394;5.734;2023-07-16T06:22:49;97133.97;;;25.37;80.11
55289;BME280;41154;45.394;5.734;2023-07-16T06:25:15;97134.75;;;26.15;77.53
55289;BME280;41154;45.394;5.734;2023-07-16T06:27:41;97121.59;;;27.61;72.57
55289;BME280;41154;45.394;5.734;2023-07-16T06:30:12;97129.31;;;29.35;64.79
55289;BME280;41154;45.394;5.734;2023-07-16T06:32:40;97136.91;;;29.18;64.92
55289;BME280;41154;45.394;5.734;2023-07-16T06:35:08;97143.22;;;28.53;66.72
55289;BME280;41154;45.394;5.734;2023-07-16T06:37:34;97133.53;;;26.85;69.96
55289;BME280;41154;45.394;5.734;2023-07-16T06:39:59;97140.81;;;26.21;74.44
55289;BME280;41154;45.394;5.734;2023-07-16T06:42:25;97141.91;;;23.54;92.25
55289;BME280;41154;45.394;5.734;2023-07-16T06:44:52;97127.94;;;27.46;72.95
55289;BME280;41154;45.394;5.734;2023-07-16T06:47:17;97132.25;;;27.62;70.10
55289;BME280;41154;45.394;5.734;2023-07-16T06:49:43;97137.13;;;28.05;67.67
55289;BME280;41154;45.394;5.734;2023-07-16T06:52:21;97138.22;;;28.00;67.77
55289;BME280;41154;45.394;5.734;2023-07-16T06:54:47;97139.59;;;29.34;63.35
55289;BME280;41154;45.394;5.734;2023-07-16T06:57:13;97140.69;;;30.10;60.03
55289;BME280;41154;45.394;5.734;2023-07-16T06:59:39;97146.38;;;29.17;62.95
55289;BME280;41154;45.394;5.734;2023-07-16T07:02:05;97142.47;;;28.33;65.06
55289;BME280;41154;45.394;5.734;2023-07-16T07:04:30;97146.13;;;31.53;55.72
55289;BME280;41154;45.394;5.734;2023-07-16T07:06:56;97149.69;;;31.05;54.17
55289;BME280;41154;45.394;5.734;2023-07-16T07:09:22;97143.63;;;30.55;55.20
55289;BME280;41154;45.394;5.734;2023-07-16T07:11:49;97140.56;;;27.82;58.42
55289;BME280;41154;45.394;5.734;2023-07-16T07:14:14;97133.91;;;31.61;52.97
55289;BME280;41154;45.394;5.734;2023-07-16T07:16:40;97143.75;;;31.07;52.47
55289;BME280;41154;45.394;5.734;2023-07-16T07:19:06;97155.09;;;29.69;55.91
55289;BME280;41154;45.394;5.734;2023-07-16T07:21:31;97162.50;;;26.10;68.53
55289;BME280;41154;45.394;5.734;2023-07-16T07:23:57;97164.63;;;25.52;72.57
55289;BME280;41154;45.394;5.734;2023-07-16T07:26:25;97157.66;;;24.29;81.58
55289;BME280;41154;45.394;5.734;2023-07-16T07:28:50;97162.13;;;23.41;86.03
55289;BME280;41154;45.394;5.734;2023-07-16T07:31:16;97167.59;;;24.00;82.86
55289;BME280;41154;45.394;5.734;2023-07-16T07:33:42;97162.47;;;26.95;67.59
55289;BME280;41154;45.394;5.734;2023-07-16T07:36:08;97177.78;;;27.56;63.89
55289;BME280;41154;45.394;5.734;2023-07-16T07:38:33;97177.19;;;27.98;61.24
55289;BME280;41154;45.394;5.734;2023-07-16T07:40:59;97170.59;;;29.04;59.52
55289;BME280;41154;45.394;5.734;2023-07-16T07:43:25;97164.34;;;28.45;60.04
55289;BME280;41154;45.394;5.734;2023-07-16T07:45:50;97160.75;;;28.61;59.27
55289;BME280;41154;45.394;5.734;2023-07-16T07:48:16;97155.88;;;28.54;60.20
55289;BME280;41154;45.394;5.734;2023-07-16T07:50:42;97156.03;;;27.87;58.85
55289;BME280;41154;45.394;5.734;2023-07-16T07:53:08;97165.75;;;24.80;69.27
55289;BME280;41154;45.394;5.734;2023-07-16T07:55:34;97155.84;;;25.87;67.16
55289;BME280;41154;45.394;5.734;2023-07-16T07:58:03;97144.88;;;25.99;67.56
55289;BME280;41154;45.394;5.734;2023-07-16T08:04:15;97135.22;;;24.36;74.74
55289;BME280;41154;45.394;5.734;2023-07-16T08:10:28;97142.75;;;23.55;80.88
55289;BME280;41154;45.394;5.734;2023-07-16T08:12:54;97155.75;;;27.24;67.15
55289;BME280;41154;45.394;5.734;2023-07-16T08:15:20;97157.25;;;26.90;64.75
55289;BME280;41154;45.394;5.734;2023-07-16T08:18:04;97164.06;;;27.76;62.96
55289;BME280;41154;45.394;5.734;2023-07-16T08:20:30;97167.03;;;27.19;62.46
55289;BME280;41154;45.394;5.734;2023-07-16T08:22:56;97165.84;;;27.04;63.07
55289;BME280;41154;45.394;5.734;2023-07-16T08:25:22;97166.91;;;28.74;58.79
55289;BME280;41154;45.394;5.734;2023-07-16T08:27:48;97163.69;;;29.14;56.68
55289;BME280;41154;45.394;5.734;2023-07-16T08:30:14;97172.94;;;29.99;54.06
55289;BME280;41154;45.394;5.734;2023-07-16T08:32:40;97168.88;;;29.39;54.87
55289;BME280;41154;45.394;5.734;2023-07-16T08:35:06;97176.75;;;30.47;50.48
55289;BME280;41154;45.394;5.734;2023-07-16T08:37:32;97172.50;;;31.36;49.07
55289;BME280;41154;45.394;5.734;2023-07-16T08:39:57;97171.41;;;30.99;50.84
55289;BME280;41154;45.394;5.734;2023-07-16T08:42:23;97170.16;;;30.29;51.03
55289;BME280;41154;45.394;5.734;2023-07-16T08:44:49;97154.34;;;31.98;48.86
55289;BME280;41154;45.394;5.734;2023-07-16T08:47:16;97159.91;;;31.98;48.20
55289;BME280;41154;45.394;5.734;2023-07-16T08:49:56;97170.38;;;30.43;51.23
55289;BME280;41154;45.394;5.734;2023-07-16T08:52:22;97163.00;;;31.89;48.12
55289;BME280;41154;45.394;5.734;2023-07-16T08:54:47;97158.25;;;32.70;47.17
55289;BME280;41154;45.394;5.734;2023-07-16T08:57:14;97173.00;;;30.06;52.04
55289;BME280;41154;45.394;5.734;2023-07-16T08:59:40;97163.63;;;31.64;47.96
55289;BME280;41154;45.394;5.734;2023-07-16T09:02:06;97160.41;;;31.55;47.50
55289;BME280;41154;45.394;5.734;2023-07-16T09:04:32;97164.81;;;31.63;47.72
55289;BME280;41154;45.394;5.734;2023-07-16T09:06:58;97157.72;;;31.21;48.66
55289;BME280;41154;45.394;5.734;2023-07-16T09:09:24;97160.75;;;31.50;47.42
55289;BME280;41154;45.394;5.734;2023-07-16T09:11:50;97165.16;;;30.72;49.64
55289;BME280;41154;45.394;5.734;2023-07-16T09:14:19;97158.59;;;29.39;51.36
55289;BME280;41154;45.394;5.734;2023-07-16T09:16:50;97165.72;;;29.90;51.08
55289;BME280;41154;45.394;5.734;2023-07-16T09:19:15;97157.84;;;28.54;53.92
55289;BME280;41154;45.394;5.734;2023-07-16T09:21:47;97160.53;;;27.59;56.49
55289;BME280;41154;45.394;5.734;2023-07-16T09:24:13;97153.84;;;30.51;51.11
55289;BME280;41154;45.394;5.734;2023-07-16T09:26:48;97155.34;;;30.44;49.99
55289;BME280;41154;45.394;5.734;2023-07-16T09:29:14;97154.59;;;30.47;50.25
55289;BME280;41154;45.394;5.734;2023-07-16T09:31:54;97151.47;;;28.92;53.53
55289;BME280;41154;45.394;5.734;2023-07-16T09:34:20;97151.00;;;29.83;52.47
55289;BME280;41154;45.394;5.734;2023-07-16T09:36:50;97141.44;;;31.12;48.97
55289;BME280;41154;45.394;5.734;2023-07-16T09:39:19;97139.13;;;27.21;58.56
55289;BME280;41154;45.394;5.734;2023-07-16T09:41:49;97142.38;;;25.81;62.71
55289;BME280;41154;45.394;5.734;2023-07-16T09:44:16;97133.06;;;26.39;65.39
55289;BME280;41154;45.394;5.734;2023-07-16T09:46:42;97123.84;;;26.47;62.06
55289;BME280;41154;45.394;5.734;2023-07-16T09:49:09;97141.28;;;25.33;66.89
55289;BME280;41154;45.394;5.734;2023-07-16T09:51:39;97124.28;;;26.78;64.27
55289;BME280;41154;45.394;5.734;2023-07-16T09:54:05;97133.88;;;25.87;65.70
55289;BME280;41154;45.394;5.734;2023-07-16T09:56:53;97138.06;;;26.49;65.19
55289;BME280;41154;45.394;5.734;2023-07-16T09:59:23;97132.03;;;26.60;61.34
55289;BME280;41154;45.394;5.734;2023-07-16T10:01:50;97125.81;;;27.07;62.90
55289;BME280;41154;45.394;5.734;2023-07-16T10:04:18;97125.97;;;26.98;61.46
55289;BME280;41154;45.394;5.734;2023-07-16T10:06:57;97136.25;;;26.13;64.26
55289;BME280;41154;45.394;5.734;2023-07-16T10:09:40;97119.41;;;25.49;67.30
55289;BME280;41154;45.394;5.734;2023-07-16T10:12:14;97127.50;;;25.82;65.67
55289;BME280;41154;45.394;5.734;2023-07-16T10:14:43;97119.41;;;27.03;60.60
55289;BME280;41154;45.394;5.734;2023-07-16T10:17:23;97122.00;;;27.79;59.23
55289;BME280;41154;45.394;5.734;2023-07-16T10:20:01;97127.91;;;25.97;65.08
55289;BME280;41154;45.394;5.734;2023-07-16T10:22:33;97119.63;;;25.56;67.61
55289;BME280;41154;45.394;5.734;2023-07-16T10:25:00;97123.28;;;26.26;65.33
55289;BME280;41154;45.394;5.734;2023-07-16T10:27:30;97114.06;;;26.94;62.25
55289;BME280;41154;45.394;5.734;2023-07-16T10:29:57;97120.97;;;26.28;66.29
55289;BME280;41154;45.394;5.734;2023-07-16T10:32:26;97119.50;;;25.77;68.38
55289;BME280;41154;45.394;5.734;2023-07-16T10:34:53;97104.50;;;26.60;64.49
55289;BME280;41154;45.394;5.734;2023-07-16T10:37:19;97118.75;;;26.05;65.95
55289;BME280;41154;45.394;5.734;2023-07-16T10:39:49;97107.66;;;26.30;66.22
55289;BME280;41154;45.394;5.734;2023-07-16T10:42:16;97105.66;;;25.61;68.29
55289;BME280;41154;45.394;5.734;2023-07-16T10:44:43;97116.75;;;26.46;64.87
55289;BME280;41154;45.394;5.734;2023-07-16T10:47:09;97110.13;;;26.35;66.09
55289;BME280;41154;45.394;5.734;2023-07-16T10:49:35;97112.59;;;26.52;66.19
55289;BME280;41154;45.394;5.734;2023-07-16T10:52:01;97109.84;;;26.52;62.88
55289;BME280;41154;45.394;5.734;2023-07-16T10:54:27;97102.28;;;27.25;62.00
55289;BME280;41154;45.394;5.734;2023-07-16T10:56:53;97106.44;;;27.19;62.18
55289;BME280;41154;45.394;5.734;2023-07-16T10:59:19;97101.78;;;25.62;69.68
55289;BME280;41154;45.394;5.734;2023-07-16T11:01:45;97105.00;;;25.40;69.00
55289;BME280;41154;45.394;5.734;2023-07-16T11:04:11;97109.72;;;25.92;66.29
55289;BME280;41154;45.394;5.734;2023-07-16T11:06:37;97100.50;;;26.85;63.05
55289;BME280;41154;45.394;5.734;2023-07-16T11:09:07;97101.88;;;25.66;68.61
55289;BME280;41154;45.394;5.734;2023-07-16T11:11:33;97102.75;;;26.51;65.01
55289;BME280;41154;45.394;5.734;2023-07-16T11:13:58;97104.59;;;25.78;68.07
55289;BME280;41154;45.394;5.734;2023-07-16T11:16:24;97108.22;;;25.42;69.69
55289;BME280;41154;45.394;5.734;2023-07-16T11:18:51;97095.94;;;26.33;68.31
55289;BME280;41154;45.394;5.734;2023-07-16T11:21:20;97101.28;;;26.26;64.77
55289;BME280;41154;45.394;5.734;2023-07-16T11:23:46;97096.00;;;25.80;66.45
55289;BME280;41154;45.394;5.734;2023-07-16T11:26:14;97082.56;;;25.91;65.25
55289;BME280;41154;45.394;5.734;2023-07-16T11:28:41;97093.66;;;25.29;66.97
55289;BME280;41154;45.394;5.734;2023-07-16T11:31:14;97074.91;;;26.25;63.75
55289;BME280;41154;45.394;5.734;2023-07-16T11:34:05;97079.91;;;25.94;68.12
55289;BME280;41154;45.394;5.734;2023-07-16T11:36:33;97077.19;;;25.29;66.00
55289;BME280;41154;45.394;5.734;2023-07-16T11:38:59;97076.38;;;25.53;66.76
55289;BME280;41154;45.394;5.734;2023-07-16T11:41:27;97075.59;;;25.03;66.87
55289;BME280;41154;45.394;5.734;2023-07-16T11:43:53;97076.03;;;24.93;67.26
55289;BME280;41154;45.394;5.734;2023-07-16T11:46:19;97076.41;;;25.28;66.08
55289;BME280;41154;45.394;5.734;2023-07-16T11:48:45;97063.56;;;25.57;68.88
55289;BME280;41154;45.394;5.734;2023-07-16T11:51:11;97067.69;;;24.77;66.80
55289;BME280;41154;45.394;5.734;2023-07-16T11:53:36;97076.72;;;25.92;63.80
55289;BME280;41154;45.394;5.734;2023-07-16T11:56:05;97062.56;;;25.50;66.55
55289;BME280;41154;45.394;5.734;2023-07-16T11:58:31;97073.28;;;25.18;65.61
55289;BME280;41154;45.394;5.734;2023-07-16T12:00:57;97067.59;;;25.23;67.38
55289;BME280;41154;45.394;5.734;2023-07-16T12:06:38;97060.00;;;25.57;64.30
55289;BME280;41154;45.394;5.734;2023-07-16T12:09:03;97066.78;;;25.35;64.88
55289;BME280;41154;45.394;5.734;2023-07-16T12:11:29;97065.81;;;25.96;65.25
55289;BME280;41154;45.394;5.734;2023-07-16T12:13:55;97068.16;;;25.41;65.86
55289;BME280;41154;45.394;5.734;2023-07-16T12:16:21;97064.94;;;25.92;66.97
55289;BME280;41154;45.394;5.734;2023-07-16T12:18:47;97068.34;;;25.73;65.69
55289;BME280;41154;45.394;5.734;2023-07-16T12:21:12;97072.84;;;25.40;65.15
55289;BME280;41154;45.394;5.734;2023-07-16T12:23:38;97078.34;;;25.40;62.08
55289;BME280;41154;45.394;5.734;2023-07-16T12:26:04;97072.09;;;25.80;65.73
55289;BME280;41154;45.394;5.734;2023-07-16T12:28:29;97070.66;;;25.99;61.50
55289;BME280;41154;45.394;5.734;2023-07-16T12:30:55;97070.84;;;25.65;62.53
55289;BME280;41154;45.394;5.734;2023-07-16T12:33:20;97065.63;;;25.60;64.96
55289;BME280;41154;45.394;5.734;2023-07-16T12:35:46;97058.38;;;26.09;65.03
55289;BME280;41154;45.394;5.734;2023-07-16T12:38:12;97055.56;;;25.40;64.30
55289;BME280;41154;45.394;5.734;2023-07-16T12:40:38;97047.91;;;25.21;64.68
55289;BME280;41154;45.394;5.734;2023-07-16T12:43:06;97039.16;;;25.68;62.56
55289;BME280;41154;45.394;5.734;2023-07-16T12:45:32;97031.84;;;25.88;61.78
55289;BME280;41154;45.394;5.734;2023-07-16T12:48:10;97033.88;;;25.63;65.66
55289;BME280;41154;45.394;5.734;2023-07-16T12:50:35;97025.47;;;25.84;63.01
55289;BME280;41154;45.394;5.734;2023-07-16T12:53:02;97024.50;;;25.92;63.40
55289;BME280;41154;45.394;5.734;2023-07-16T12:55:28;97024.41;;;26.01;64.72
55289;BME280;41154;45.394;5.734;2023-07-16T12:57:56;97026.91;;;25.94;58.65
55289;BME280;41154;45.394;5.734;2023-07-16T13:00:40;97018.47;;;25.87;58.88
55289;BME280;41154;45.394;5.734;2023-07-16T13:03:06;97012.66;;;26.16;60.26
55289;BME280;41154;45.394;5.734;2023-07-16T13:05:40;97014.56;;;25.88;61.25
55289;BME280;41154;45.394;5.734;2023-07-16T13:08:07;97022.38;;;25.86;62.19
55289;BME280;41154;45.394;5.734;2023-07-16T13:10:33;97023.72;;;25.63;61.28